createdAt,value
2023-04-06T00:00:41.889Z,71.35
2023-04-06T00:04:55.386Z,71.28
2023-04-06T00:09:08.065Z,70.80
2023-04-06T00:13:20.824Z,71.76
2023-04-06T00:17:36.177Z,72.02
2023-04-06T00:21:48.857Z,71.82
2023-04-06T00:26:02.670Z,72.35
2023-04-06T00:30:15.880Z,73.93
2023-04-06T00:34:28.352Z,75.47
2023-04-06T00:38:40.959Z,74.62
2023-04-06T00:42:53.499Z,76.12
2023-04-06T00:47:05.962Z,77.08
2023-04-06T00:51:18.408Z,76.50
2023-04-06T00:55:31.486Z,76.83
2023-04-06T00:59:45.845Z,76.49
2023-04-06T01:03:59.307Z,76.30
2023-04-06T01:08:12.007Z,75.80
2023-04-06T01:12:24.872Z,75.88
2023-04-06T01:16:38.261Z,76.04
2023-04-06T01:20:57.117Z,77.03
2023-04-06T01:25:12.296Z,76.45
2023-04-06T01:29:35.337Z,76.51
2023-04-06T01:33:50.509Z,75.49
2023-04-06T01:38:05.979Z,76.08
2023-04-06T01:42:21.618Z,76.24
2023-04-06T01:46:34.475Z,76.73
2023-04-06T01:50:50.314Z,76.67
2023-04-06T01:55:08.953Z,76.89
2023-04-06T01:59:41.344Z,76.84
2023-04-06T02:04:01.691Z,77.11
2023-04-06T02:08:14.153Z,76.54
2023-04-06T02:12:26.916Z,75.56
2023-04-06T02:16:41.043Z,72.30
2023-04-06T02:20:53.565Z,70.39
2023-04-06T02:25:07.669Z,71.19
2023-04-06T02:29:20.121Z,70.86
2023-04-06T02:33:32.516Z,71.73
2023-04-06T02:37:45.965Z,71.75
2023-04-06T02:41:58.545Z,72.77
2023-04-06T02:46:12.553Z,72.58
2023-04-06T02:50:25.683Z,73.36
2023-04-06T02:54:45.073Z,75.96
2023-04-06T02:58:57.920Z,76.21
2023-04-06T03:03:15.142Z,77.00
2023-04-06T03:07:31.643Z,78.20
2023-04-06T03:11:44.390Z,78.90
2023-04-06T03:15:56.933Z,78.47
2023-04-06T03:20:10.147Z,78.79
2023-04-06T03:24:22.518Z,78.81
2023-04-06T03:28:35.229Z,79.29
2023-04-06T03:32:51.812Z,79.65
2023-04-06T03:37:10.335Z,80.08
2023-04-06T03:41:29.610Z,79.47
2023-04-06T03:46:04.904Z,80.08
2023-04-06T03:50:17.578Z,79.53
2023-04-06T03:54:30.610Z,79.03
2023-04-06T03:58:42.964Z,78.38
2023-04-06T04:02:58.146Z,78.78
2023-04-06T04:07:10.740Z,79.65
2023-04-06T04:11:23.130Z,80.04
2023-04-06T04:15:41.345Z,79.66
2023-04-06T04:19:55.132Z,79.36
2023-04-06T04:24:07.689Z,80.63
2023-04-06T04:28:21.795Z,80.79
2023-04-06T04:32:34.927Z,80.48
2023-04-06T04:36:50.256Z,80.33
2023-04-06T04:41:09.922Z,80.76
2023-04-06T04:45:25.769Z,80.09
2023-04-06T04:49:39.122Z,80.14
2023-04-06T04:53:52.381Z,79.77
2023-04-06T04:58:10.828Z,79.42
2023-04-06T05:02:40.807Z,80.28
2023-04-06T05:07:11.050Z,80.98
2023-04-06T05:11:26.705Z,79.60
2023-04-06T05:15:44.812Z,78.85
2023-04-06T05:20:11.544Z,78.84
2023-04-06T05:24:31.514Z,77.45
2023-04-06T05:28:45.944Z,78.12
2023-04-06T05:33:01.711Z,77.93
2023-04-06T05:37:21.805Z,77.43
2023-04-06T05:41:34.416Z,76.57
2023-04-06T05:45:48.942Z,76.66
2023-04-06T05:50:01.507Z,76.62
2023-04-06T05:54:19.785Z,77.28
2023-04-06T05:58:32.766Z,77.08
2023-04-06T06:02:46.502Z,77.10
2023-04-06T06:07:04.912Z,76.38
2023-04-06T06:11:23.150Z,76.25
2023-04-06T06:15:36.026Z,76.37
2023-04-06T06:19:49.174Z,75.70
2023-04-06T06:24:02.645Z,73.44
2023-04-06T06:28:15.356Z,69.46
2023-04-06T06:32:28.837Z,68.65
2023-04-06T06:36:41.388Z,67.76
2023-04-06T06:40:56.925Z,68.27
2023-04-06T06:45:12.572Z,69.49
2023-04-06T06:49:25.984Z,65.82
2023-04-06T06:53:38.534Z,63.09
2023-04-06T06:57:50.999Z,63.28
2023-04-06T07:02:05.711Z,63.56
2023-04-06T07:06:18.104Z,61.41
2023-04-06T07:10:30.814Z,62.71
2023-04-06T07:14:43.345Z,63.69
2023-04-06T07:18:55.714Z,62.74
2023-04-06T07:23:08.880Z,62.96
2023-04-06T07:27:21.588Z,62.41
2023-04-06T07:31:34.790Z,60.82
2023-04-06T07:35:48.011Z,59.68
2023-04-06T07:40:01.491Z,59.10
2023-04-06T07:44:16.387Z,56.23
2023-04-06T07:48:29.092Z,54.10
2023-04-06T07:52:41.589Z,61.52
2023-04-06T07:56:54.722Z,53.15
2023-04-06T08:01:07.477Z,54.54
2023-04-06T08:05:19.995Z,53.40
2023-04-06T08:09:32.557Z,50.52
2023-04-06T08:13:45.066Z,52.42
2023-04-06T08:17:58.575Z,52.25
2023-04-06T08:22:11.491Z,53.08
2023-04-06T08:26:24.058Z,52.44
2023-04-06T08:30:37.055Z,50.48
2023-04-06T08:34:49.508Z,51.07
2023-04-06T08:39:02.491Z,45.86
2023-04-06T08:43:16.197Z,44.67
2023-04-06T08:47:29.431Z,45.02
2023-04-06T08:51:43.677Z,43.65
2023-04-06T08:55:59.326Z,42.54
2023-04-06T09:00:12.898Z,42.67
2023-04-06T09:04:25.586Z,44.10
2023-04-06T09:08:41.556Z,44.38
2023-04-06T09:13:04.685Z,43.15
2023-04-06T09:17:28.659Z,40.37
2023-04-06T09:21:41.412Z,39.77
2023-04-06T09:25:53.850Z,40.16
2023-04-06T09:30:15.463Z,39.84
2023-04-06T09:34:28.051Z,38.07
2023-04-06T09:38:56.372Z,38.06
2023-04-06T09:43:08.858Z,37.21
2023-04-06T09:47:26.399Z,36.74
2023-04-06T09:51:50.922Z,36.76
2023-04-06T09:56:05.761Z,35.90
2023-04-06T10:00:22.436Z,35.62
2023-04-06T10:04:45.713Z,35.25
2023-04-06T10:08:59.179Z,34.85
2023-04-06T10:13:12.677Z,35.00
2023-04-06T10:17:27.868Z,36.26
2023-04-06T10:21:44.530Z,33.09
2023-04-06T10:26:00.902Z,34.31
2023-04-06T10:30:18.472Z,34.00
2023-04-06T10:34:37.154Z,31.57
2023-04-06T10:39:00.042Z,31.47
2023-04-06T10:43:23.680Z,32.14
2023-04-06T10:47:42.507Z,32.92
2023-04-06T10:51:58.766Z,31.49
2023-04-06T10:56:13.357Z,32.71
2023-04-06T11:00:33.240Z,32.30
2023-04-06T11:04:58.732Z,32.35
2023-04-06T11:09:11.254Z,32.10
2023-04-06T11:13:23.753Z,31.36
2023-04-06T11:17:38.509Z,29.23
2023-04-06T11:21:51.235Z,31.38
2023-04-06T11:26:04.216Z,29.91
2023-04-06T11:30:17.065Z,29.73
2023-04-06T11:34:38.378Z,30.17
2023-04-06T11:38:51.462Z,30.31
2023-04-06T11:43:06.016Z,27.24
2023-04-06T11:47:18.633Z,22.32
2023-04-06T11:51:32.339Z,24.38
2023-04-06T11:55:48.601Z,26.77
2023-04-06T12:00:01.315Z,30.17
2023-04-06T12:04:13.818Z,32.54
2023-04-06T12:08:27.206Z,33.29
2023-04-06T12:12:41.113Z,33.20
2023-04-06T12:16:53.636Z,31.87
2023-04-06T12:21:06.725Z,32.85
2023-04-06T12:25:19.268Z,31.98
2023-04-06T12:29:31.984Z,32.91
2023-04-06T12:33:46.345Z,32.39
2023-04-06T12:37:58.867Z,31.44
2023-04-06T12:42:13.889Z,32.59
2023-04-06T12:46:26.507Z,32.94
2023-04-06T12:50:39.279Z,33.71
2023-04-06T12:54:54.125Z,33.16
2023-04-06T12:59:06.852Z,33.12
2023-04-06T13:03:21.268Z,32.54
2023-04-06T13:07:33.829Z,34.32
2023-04-06T13:11:47.198Z,33.70
2023-04-06T13:16:08.464Z,33.53
2023-04-06T13:20:21.082Z,33.99
2023-04-06T13:24:33.783Z,33.74
2023-04-06T13:28:46.445Z,33.16
2023-04-06T13:32:59.323Z,32.55
2023-04-06T13:37:14.555Z,32.71
2023-04-06T13:41:27.695Z,33.62
2023-04-06T13:45:40.826Z,33.03
2023-04-06T13:49:54.389Z,32.00
2023-04-06T13:54:06.869Z,31.79
2023-04-06T13:58:19.434Z,32.26
2023-04-06T14:02:32.033Z,33.32
2023-04-06T14:06:46.928Z,32.94
2023-04-06T14:10:59.467Z,33.77
2023-04-06T14:15:15.236Z,35.15
2023-04-06T14:19:27.667Z,34.81
2023-04-06T14:23:40.508Z,34.82
2023-04-06T14:27:52.939Z,35.94
2023-04-06T14:32:05.396Z,37.16
2023-04-06T14:36:18.530Z,37.62
2023-04-06T14:40:31.315Z,39.31
2023-04-06T14:44:46.135Z,39.71
2023-04-06T14:48:59.122Z,38.48
2023-04-06T14:53:12.768Z,38.99
2023-04-06T14:57:25.346Z,38.75
2023-04-06T15:01:38.729Z,39.85
2023-04-06T15:05:51.334Z,40.84
2023-04-06T15:10:04.076Z,41.57
2023-04-06T15:14:16.603Z,42.62
2023-04-06T15:18:29.013Z,43.40
2023-04-06T15:22:41.655Z,42.63
2023-04-06T15:26:53.992Z,42.97
2023-04-06T15:31:28.330Z,44.27
2023-04-06T15:35:49.382Z,43.91
2023-04-06T15:40:02.045Z,43.34
2023-04-06T15:44:14.449Z,45.36
2023-04-06T15:48:26.882Z,45.41
2023-04-06T15:52:40.188Z,44.78
2023-04-06T15:56:52.653Z,44.24
2023-04-06T16:01:19.159Z,46.09
2023-04-06T16:05:34.561Z,45.94
2023-04-06T16:09:47.395Z,46.75
2023-04-06T16:14:00.446Z,47.63
2023-04-06T16:18:13.092Z,48.00
2023-04-06T16:22:25.522Z,47.72
2023-04-06T16:26:37.924Z,47.42
2023-04-06T16:30:50.324Z,47.35
2023-04-06T16:35:04.412Z,47.44
2023-04-06T16:39:17.476Z,48.30
2023-04-06T16:43:29.837Z,49.39
2023-04-06T16:47:42.333Z,48.65
2023-04-06T16:51:54.844Z,49.49
2023-04-06T17:00:22.551Z,50.22
2023-04-06T17:04:35.019Z,50.35
2023-04-06T17:08:48.520Z,50.95
2023-04-06T17:13:01.267Z,51.91
2023-04-06T17:17:14.089Z,52.17
2023-04-06T17:21:26.828Z,52.48
2023-04-06T17:25:39.425Z,52.78
2023-04-06T17:29:51.788Z,52.17
2023-04-06T17:34:04.134Z,51.92
2023-04-06T17:38:16.668Z,52.40
2023-04-06T17:42:29.213Z,52.36
2023-04-06T17:46:41.929Z,53.24
2023-04-06T17:50:54.564Z,52.71
2023-04-06T17:55:07.305Z,53.21
2023-04-06T17:59:19.808Z,53.33
2023-04-06T18:03:32.248Z,53.92
2023-04-06T18:07:44.818Z,53.63
2023-04-06T18:11:57.480Z,54.22
2023-04-06T18:16:09.877Z,54.98
2023-04-06T18:20:22.453Z,54.40
2023-04-06T18:24:42.069Z,54.84
2023-04-06T18:28:54.805Z,55.57
2023-04-06T18:33:08.705Z,56.03
2023-04-06T18:37:21.125Z,55.94
2023-04-06T18:41:33.577Z,56.45
2023-04-06T18:45:46.312Z,56.32
2023-04-06T18:49:58.709Z,57.10
2023-04-06T18:54:11.157Z,58.24
2023-04-06T18:58:25.402Z,58.77
2023-04-06T19:02:38.323Z,58.99
2023-04-06T19:06:51.049Z,57.52
2023-04-06T19:11:10.047Z,56.39
2023-04-06T19:15:22.411Z,57.47
2023-04-06T19:19:34.915Z,56.68
2023-04-06T19:23:50.141Z,57.43
2023-04-06T19:28:02.552Z,57.60
2023-04-06T19:32:15.210Z,56.94
2023-04-06T19:36:28.679Z,56.52
2023-04-06T19:40:41.004Z,57.75
2023-04-06T19:44:54.003Z,57.87
2023-04-06T19:49:06.609Z,59.32
2023-04-06T19:53:19.019Z,60.07
2023-04-06T19:57:31.639Z,60.14
2023-04-06T20:01:45.704Z,58.80
2023-04-06T20:05:58.869Z,57.45
2023-04-06T20:10:11.394Z,59.63
2023-04-06T20:14:24.074Z,59.27
2023-04-06T20:18:37.399Z,58.16
2023-04-06T20:22:50.416Z,56.86
2023-04-06T20:27:03.547Z,59.83
2023-04-06T20:31:16.068Z,60.15
2023-04-06T20:35:28.525Z,61.14
2023-04-06T20:39:41.173Z,61.71
2023-04-06T20:43:53.677Z,62.23
2023-04-06T20:48:06.234Z,62.45
2023-04-06T20:52:18.791Z,61.34
2023-04-06T20:56:31.422Z,61.30
2023-04-06T21:00:43.815Z,61.29
2023-04-06T21:04:56.309Z,59.27
2023-04-06T21:09:08.689Z,59.10
2023-04-06T21:13:21.290Z,61.61
2023-04-06T21:17:33.747Z,61.68
2023-04-06T21:21:46.143Z,60.14
2023-04-06T21:25:58.734Z,59.31
2023-04-06T21:30:11.755Z,60.77
2023-04-06T21:34:24.284Z,59.49
2023-04-06T21:38:36.826Z,58.28
2023-04-06T21:42:49.126Z,59.77
2023-04-06T21:47:01.762Z,61.09
2023-04-06T21:51:21.629Z,62.48
2023-04-06T21:55:33.994Z,60.36
2023-04-06T21:59:46.468Z,60.39
2023-04-06T22:04:00.745Z,60.13
2023-04-06T22:08:20.852Z,61.09
2023-04-06T22:12:42.678Z,60.69
2023-04-06T22:16:55.045Z,60.83
2023-04-06T22:21:08.717Z,63.99
2023-04-06T22:25:21.066Z,63.78
2023-04-06T22:29:33.602Z,63.10
2023-04-06T22:33:46.017Z,62.69
2023-04-06T22:38:00.913Z,64.45
2023-04-06T22:42:13.449Z,63.52
2023-04-06T22:46:26.012Z,63.63
2023-04-06T22:50:38.424Z,65.09
2023-04-06T22:54:51.240Z,64.39
2023-04-06T22:59:04.065Z,63.60
2023-04-06T23:03:16.633Z,63.43
2023-04-06T23:07:29.624Z,64.46
2023-04-06T23:11:42.082Z,64.60
2023-04-06T23:15:54.587Z,64.85
2023-04-06T23:20:07.605Z,65.10
2023-04-06T23:24:20.075Z,65.29
2023-04-06T23:28:32.553Z,64.95
2023-04-06T23:32:45.045Z,64.73
2023-04-06T23:37:01.407Z,64.35
2023-04-06T23:41:17.132Z,66.25
2023-04-06T23:45:29.620Z,65.68
2023-04-06T23:49:42.055Z,66.88
2023-04-06T23:53:54.528Z,66.23
2023-04-06T23:58:07.066Z,67.59
